sensor_id;sensor_type;location;lat;lon;timestamp;pressure;altitude;pressure_sealevel;temperature;humidity
69593;BME280;56796;50.122;14.468;2022-09-27T00:00:25;964.69;;;10.84;90.76
69593;BME280;56796;50.122;14.468;2022-09-27T00:20:03;964.39;;;10.88;91.61
69593;BME280;56796;50.122;14.468;2022-09-27T00:39:24;963.93;;;10.81;92.43
69593;BME280;56796;50.122;14.468;2022-09-27T00:59:01;963.71;;;10.87;92.67
69593;BME280;56796;50.122;14.468;2022-09-27T01:18:34;963.51;;;10.74;92.85
69593;BME280;56796;50.122;14.468;2022-09-27T01:38:11;963.16;;;10.78;93.19
69593;BME280;56796;50.122;14.468;2022-09-27T01:57:45;962.73;;;10.86;93.37
69593;BME280;56796;50.122;14.468;2022-09-27T02:17:21;962.55;;;10.86;93.96
69593;BME280;56796;50.122;14.468;2022-09-27T02:36:57;962.2;;;10.96;93.73
69593;BME280;56796;50.122;14.468;2022-09-27T02:56:33;961.77;;;11;92.97
69593;BME280;56796;50.122;14.468;2022-09-27T03:16:05;961.67;;;11.05;92.2
69593;BME280;56796;50.122;14.468;2022-09-27T03:35:42;961.39;;;11.09;91.48
69593;BME280;56796;50.122;14.468;2022-09-27T03:55:18;961.21;;;11.06;90.96
69593;BME280;56796;50.122;14.468;2022-09-27T04:14:50;961.09;;;11.12;89.7
69593;BME280;56796;50.122;14.468;2022-09-27T04:34:26;960.9;;;10.98;92.3
69593;BME280;56796;50.122;14.468;2022-09-27T04:54:01;960.96;;;10.78;94.17
69593;BME280;56796;50.122;14.468;2022-09-27T05:13:35;960.88;;;10.8;94.64
69593;BME280;56796;50.122;14.468;2022-09-27T05:33:13;960.92;;;10.94;93.63
69593;BME280;56796;50.122;14.468;2022-09-27T05:52:48;960.81;;;10.83;95.14
69593;BME280;56796;50.122;14.468;2022-09-27T06:12:24;960.93;;;10.94;94.7
69593;BME280;56796;50.122;14.468;2022-09-27T06:31:58;961.01;;;11.13;93.66
69593;BME280;56796;50.122;14.468;2022-09-27T06:51:33;960.89;;;11.5;90.51
69593;BME280;56796;50.122;14.468;2022-09-27T07:11:10;961.02;;;11.94;88.7
69593;BME280;56796;50.122;14.468;2022-09-27T07:30:53;960.9;;;12.13;86.11
69593;BME280;56796;50.122;14.468;2022-09-27T07:50:12;961.04;;;12.68;83.38
69593;BME280;56796;50.122;14.468;2022-09-27T08:09:48;961;;;13.09;80.98
69593;BME280;56796;50.122;14.468;2022-09-27T08:29:26;961.21;;;13.52;79.64
69593;BME280;56796;50.122;14.468;2022-09-27T08:49:05;961.42;;;13.06;81.72
69593;BME280;56796;50.122;14.468;2022-09-27T09:08:37;961.44;;;12.72;85.56
69593;BME280;56796;50.122;14.468;2022-09-27T09:28:15;961.31;;;12.63;84.24
69593;BME280;56796;50.122;14.468;2022-09-27T09:47:47;961.19;;;12.47;86.82
69593;BME280;56796;50.122;14.468;2022-09-27T10:07:19;961.32;;;12.84;81.8
69593;BME280;56796;50.122;14.468;2022-09-27T10:26:56;961.15;;;12.6;79.68
69593;BME280;56796;50.122;14.468;2022-09-27T10:46:30;961.31;;;13.22;77.85
69593;BME280;56796;50.122;14.468;2022-09-27T11:25:45;961.33;;;13.27;75.06
69593;BME280;56796;50.122;14.468;2022-09-27T11:45:20;961.2;;;14.05;72.19
69593;BME280;56796;50.122;14.468;2022-09-27T12:04:59;961.12;;;14.04;69.17
69593;BME280;56796;50.122;14.468;2022-09-27T12:24:33;961.26;;;14.07;74.36
69593;BME280;56796;50.122;14.468;2022-09-27T12:44:10;961.32;;;15.73;67.74
69593;BME280;56796;50.122;14.468;2022-09-27T13:03:50;961.52;;;14.43;70.64
69593;BME280;56796;50.122;14.468;2022-09-27T14:02:18;961.76;;;14.39;70.28
69593;BME280;56796;50.122;14.468;2022-09-27T14:21:51;962.04;;;14.1;70.47
69593;BME280;56796;50.122;14.468;2022-09-27T15:01:00;962.53;;;13.14;69.34
69593;BME280;56796;50.122;14.468;2022-09-27T15:20:30;962.72;;;11.14;80.25
69593;BME280;56796;50.122;14.468;2022-09-27T15:40:05;962.87;;;12.36;77.43
69593;BME280;56796;50.122;14.468;2022-09-27T15:59:36;963.08;;;12.03;78.5
69593;BME280;56796;50.122;14.468;2022-09-27T16:19:11;963.24;;;11.25;80.52
69593;BME280;56796;50.122;14.468;2022-09-27T16:38:42;963.35;;;10.84;82.29
69593;BME280;56796;50.122;14.468;2022-09-27T16:58:15;963.4;;;10.57;83.13
69593;BME280;56796;50.122;14.468;2022-09-27T17:17:48;963.43;;;10.35;83.93
69593;BME280;56796;50.122;14.468;2022-09-27T17:37:25;963.42;;;10.42;83.22
69593;BME280;56796;50.122;14.468;2022-09-27T17:56:57;963.4;;;10.38;84.09
69593;BME280;56796;50.122;14.468;2022-09-27T18:16:33;963.46;;;10.21;84.88
69593;BME280;56796;50.122;14.468;2022-09-27T18:36:08;963.61;;;10.04;85.41
69593;BME280;56796;50.122;14.468;2022-09-27T18:55:41;963.72;;;10.07;84.89
69593;BME280;56796;50.122;14.468;2022-09-27T19:15:16;963.81;;;10.04;83.51
69593;BME280;56796;50.122;14.468;2022-09-27T19:34:50;963.89;;;10.02;84.44
69593;BME280;56796;50.122;14.468;2022-09-27T19:54:33;963.86;;;9.89;85.4
69593;BME280;56796;50.122;14.468;2022-09-27T20:13:45;963.74;;;9.85;85.49
69593;BME280;56796;50.122;14.468;2022-09-27T20:33:20;963.81;;;9.76;84.93
69593;BME280;56796;50.122;14.468;2022-09-27T20:52:55;963.84;;;9.7;85.12
69593;BME280;56796;50.122;14.468;2022-09-27T21:12:29;963.93;;;9.64;84.53
69593;BME280;56796;50.122;14.468;2022-09-27T21:32:06;963.97;;;9.52;85.51
69593;BME280;56796;50.122;14.468;2022-09-27T21:51:42;964.03;;;9.49;86.73
69593;BME280;56796;50.122;14.468;2022-09-27T22:11:18;963.98;;;9.39;87.7
69593;BME280;56796;50.122;14.468;2022-09-27T22:30:51;963.98;;;9.32;88.55
69593;BME280;56796;50.122;14.468;2022-09-27T22:50:24;963.83;;;9.31;89.01
69593;BME280;56796;50.122;14.468;2022-09-27T23:09:59;963.91;;;9.22;88.81
69593;BME280;56796;50.122;14.468;2022-09-27T23:29:34;963.88;;;9.24;89.09
69593;BME280;56796;50.122;14.468;2022-09-27T23:49:09;963.75;;;9.22;89.39
